Time;durP1;ratioP1;P1;durP2;ratioP2;P2;SDS_P1;SDS_P2;PMS_P1;PMS_P2;Temp;Humidity;BMP_temperature;BMP_pressure;BME280_temperature;BME280_humidity;BME280_pressure;Samples;Min_cycle;Max_cycle;Signal;HPM_P1;HPM_P2
2021/03/05 00:00:57;;;;;;;23.92;14.32;;;;;;;5.66;86.44;98882.59;4986106;28;20030;-72
2021/03/05 00:03:22;;;;;;;21.83;12.93;;;;;;;5.66;85.62;98890.66;4979837;28;20380;-71
2021/03/05 00:05:48;;;;;;;19.70;12.35;;;;;;;5.57;85.29;98897.84;4993286;28;20030;-72
2021/03/05 00:08:16;;;;;;;18.65;12.20;;;;;;;5.54;86.32;98894.66;4990503;28;22380;-72
2021/03/05 00:10:42;;;;;;;23.00;13.45;;;;;;;5.57;86.76;98905.91;4976050;28;20093;-72
2021/03/05 00:13:08;;;;;;;20.77;12.48;;;;;;;5.43;84.94;98904.75;4988471;28;20095;-71
2021/03/05 00:15:36;;;;;;;21.60;12.88;;;;;;;5.43;84.78;98903.91;4984983;28;20042;-71
2021/03/05 00:18:02;;;;;;;22.40;13.10;;;;;;;5.34;85.03;98910.25;4986659;28;20117;-71
2021/03/05 00:20:30;;;;;;;24.95;14.00;;;;;;;5.22;85.15;98896.34;4976474;28;20083;-72
2021/03/05 00:22:56;;;;;;;22.95;13.38;;;;;;;5.21;85.29;98921.47;4978807;28;20030;-72
2021/03/05 00:25:22;;;;;;;26.00;13.85;;;;;;;5.23;85.96;98919.47;4977445;28;20109;-71
2021/03/05 00:27:48;;;;;;;27.95;15.10;;;;;;;5.10;85.41;98897.69;4985356;28;20632;-72
2021/03/05 00:30:14;;;;;;;28.77;16.40;;;;;;;5.01;85.97;98916.44;4992799;28;20060;-72
2021/03/05 00:32:40;;;;;;;32.65;17.17;;;;;;;4.94;84.89;98917.25;4994060;28;20030;-72
2021/03/05 00:35:08;;;;;;;32.42;17.67;;;;;;;4.91;85.19;98915.75;4989325;28;20487;-72
2021/03/05 00:37:34;;;;;;;27.20;13.80;;;;;;;4.81;85.19;98920.41;4989318;28;20058;-72
2021/03/05 00:40:00;;;;;;;31.77;17.45;;;;;;;4.66;85.26;98925.56;4984338;28;20065;-72
2021/03/05 00:42:25;;;;;;;33.22;18.15;;;;;;;4.64;85.24;98946.34;4978973;28;20042;-72
2021/03/05 00:44:51;;;;;;;37.83;17.90;;;;;;;4.58;85.43;98944.28;4989921;28;20093;-71
2021/03/05 00:47:16;;;;;;;34.03;18.20;;;;;;;4.48;85.65;98930.19;4992430;28;20065;-72
2021/03/05 00:49:42;;;;;;;36.55;17.45;;;;;;;4.55;85.70;98952.66;4982964;28;20441;-72
2021/03/05 00:52:07;;;;;;;36.70;19.35;;;;;;;4.54;85.73;98941.09;4976885;28;20043;-72
2021/03/05 00:54:32;;;;;;;33.67;17.08;;;;;;;4.45;85.10;98947.41;4974648;28;20400;-71
2021/03/05 00:56:58;;;;;;;31.27;16.48;;;;;;;4.26;85.40;98942.31;4988192;28;20042;-72
2021/03/05 00:59:23;;;;;;;27.48;14.77;;;;;;;4.27;85.28;98952.00;4982660;28;20030;-71
2021/03/05 01:01:48;;;;;;;29.38;15.77;;;;;;;4.17;84.91;98957.50;4979238;28;20042;-72
2021/03/05 01:04:14;;;;;;;26.27;14.95;;;;;;;4.17;85.09;98954.81;4975634;28;20037;-72
2021/03/05 01:06:39;;;;;;;28.42;14.75;;;;;;;4.15;85.09;98964.84;4990830;28;20034;-72
2021/03/05 01:09:05;;;;;;;26.08;14.88;;;;;;;4.13;85.33;98959.63;4979170;28;20065;-72
2021/03/05 01:11:31;;;;;;;23.17;13.55;;;;;;;4.10;84.91;98962.63;4989499;28;20038;-72
2021/03/05 01:13:57;;;;;;;24.98;13.45;;;;;;;4.10;84.78;98965.31;4988435;28;20092;-72
2021/03/05 01:16:22;;;;;;;25.33;14.70;;;;;;;4.01;85.44;98962.72;4990839;28;20511;-72
2021/03/05 01:18:48;;;;;;;23.67;13.35;;;;;;;4.08;85.44;98978.00;4986366;28;20042;-72
2021/03/05 01:21:13;;;;;;;25.65;13.40;;;;;;;4.07;85.47;98970.16;4989080;28;20032;-72
2021/03/05 01:23:38;;;;;;;25.48;13.43;;;;;;;4.03;85.06;98964.25;4988520;28;20125;-72
2021/03/05 01:26:05;;;;;;;25.15;13.00;;;;;;;4.05;85.32;98983.69;4992778;28;20038;-72
2021/03/05 01:28:30;;;;;;;24.33;13.30;;;;;;;4.03;85.56;98979.47;4980108;28;20123;-74
2021/03/05 01:30:56;;;;;;;27.95;14.90;;;;;;;3.93;85.52;98974.25;5004394;28;20499;-72
2021/03/05 01:33:21;;;;;;;28.30;14.45;;;;;;;3.89;85.03;98972.88;4974496;28;20050;-72
2021/03/05 01:35:46;;;;;;;22.58;13.57;;;;;;;3.93;85.26;98966.22;4983091;28;20030;-71
2021/03/05 01:38:11;;;;;;;25.15;14.57;;;;;;;3.94;85.46;98975.91;4978004;28;20041;-72
2021/03/05 01:40:40;;;;;;;25.88;13.80;;;;;;;3.88;85.94;98976.56;4993375;28;20030;-72
2021/03/05 01:43:07;;;;;;;25.98;14.30;;;;;;;3.94;85.28;98981.28;4978365;28;20030;-72
2021/03/05 01:45:33;;;;;;;26.48;13.50;;;;;;;3.87;84.79;98977.53;4992699;28;20030;-71
2021/03/05 01:48:03;;;;;;;27.65;15.23;;;;;;;3.92;85.17;98977.91;4988253;28;20034;-72
2021/03/05 01:50:32;;;;;;;26.63;13.80;;;;;;;3.89;85.60;98981.72;4993462;28;20038;-72
2021/03/05 01:53:02;;;;;;;;;;;;;;;3.92;85.04;98988.63;4995592;28;20044;-71
2021/03/05 01:55:27;;;;;;;24.77;13.23;;;;;;;3.84;85.17;98983.22;4994117;28;19914;-72
2021/03/05 01:57:53;;;;;;;24.08;13.07;;;;;;;3.84;85.12;98980.53;4994967;28;20029;-72
2021/03/05 02:00:31;;;;;;;26.73;13.80;;;;;;;3.81;85.06;98997.72;4992731;28;20064;-72
2021/03/05 02:02:56;;;;;;;25.08;13.93;;;;;;;3.86;85.60;98990.09;4993774;28;20030;-72
2021/03/05 02:05:21;;;;;;;23.75;13.40;;;;;;;3.70;85.19;98977.41;4991688;28;20018;-72
2021/03/05 02:07:47;;;;;;;26.33;14.85;;;;;;;3.80;85.16;98995.19;4993081;28;20022;-72
2021/03/05 02:10:12;;;;;;;24.50;13.80;;;;;;;3.76;85.49;98980.47;4992097;28;20030;-72
2021/03/05 02:12:38;;;;;;;24.83;14.02;;;;;;;3.78;85.20;98986.50;4992996;28;20109;-72
2021/03/05 02:15:04;;;;;;;29.85;15.20;;;;;;;3.68;85.11;98992.78;4992721;28;20481;-72
2021/03/05 02:18:01;;;;;;;26.92;14.27;;;;;;;3.69;85.55;98988.25;4993132;28;20029;-72
2021/03/05 02:20:48;;;;;;;28.23;14.13;;;;;;;3.68;85.54;98976.72;4975650;28;20042;-72
2021/03/05 02:23:49;;;;;;;26.40;13.75;;;;;;;3.73;86.11;99006.53;4991433;28;20045;-72
2021/03/05 02:26:54;;;;;;;24.85;14.02;;;;;;;3.73;85.59;99011.88;4990157;28;20033;-71
2021/03/05 02:29:54;;;;;;;24.70;13.32;;;;;;;3.67;85.94;99007.16;5000985;28;20516;-72
2021/03/05 02:32:42;;;;;;;21.85;12.30;;;;;;;3.59;85.55;99014.25;4977204;28;20026;-72
2021/03/05 02:35:09;;;;;;;24.45;13.02;;;;;;;3.63;86.24;99005.78;4975739;28;20027;-71
2021/03/05 02:37:39;;;;;;;23.73;12.73;;;;;;;3.64;85.77;99007.47;4990646;28;20022;-72
2021/03/05 02:40:10;;;;;;;24.63;13.52;;;;;;;3.73;86.13;99019.91;5000228;28;20027;-72
2021/03/05 02:42:43;;;;;;;22.13;12.63;;;;;;;3.71;85.96;99008.53;4977191;28;20469;-72
2021/03/05 02:45:17;;;;;;;23.63;13.10;;;;;;;3.63;85.99;99003.09;4991989;28;20026;-72
2021/03/05 02:47:46;;;;;;;24.00;13.15;;;;;;;3.73;86.17;99025.25;4995966;28;20026;-72
2021/03/05 02:50:15;;;;;;;21.50;12.23;;;;;;;3.69;85.92;99015.03;4996214;28;20026;-72
2021/03/05 02:52:42;;;;;;;;;;;;;;;3.71;85.94;99029.94;4996899;28;20507;-72
2021/03/05 02:55:08;;;;;;;21.85;11.95;;;;;;;3.70;85.58;99017.56;4983316;28;19910;-72
2021/03/05 02:57:41;;;;;;;20.33;11.63;;;;;;;3.69;86.30;99025.72;4977762;28;20117;-72
2021/03/05 03:00:08;;;;;;;23.40;11.40;;;;;;;3.69;85.89;99037.28;4991922;28;20024;-72
2021/03/05 03:02:36;;;;;;;25.15;12.02;;;;;;;3.68;86.23;99027.56;4982919;28;20026;-72
2021/03/05 03:05:03;;;;;;;21.08;11.60;;;;;;;3.72;86.48;99044.13;4990374;28;20085;-72
2021/03/05 03:07:30;;;;;;;18.20;10.93;;;;;;;3.69;86.51;99048.00;4986129;28;20027;-72
2021/03/05 03:09:56;;;;;;;21.88;11.07;;;;;;;3.59;85.86;99023.16;4976945;28;20091;-72
2021/03/05 03:12:23;;;;;;;19.92;11.27;;;;;;;3.67;86.01;99044.63;4984335;28;20033;-72
2021/03/05 03:14:49;;;;;;;17.95;10.15;;;;;;;3.67;86.16;99046.47;4987994;28;20037;-71
2021/03/05 03:17:15;;;;;;;19.50;11.15;;;;;;;3.66;85.80;99042.94;4994499;28;20022;-72
2021/03/05 03:19:49;;;;;;;18.30;11.05;;;;;;;3.60;86.00;99034.69;4976399;28;20065;-72
2021/03/05 03:22:14;;;;;;;21.05;12.23;;;;;;;3.58;86.38;99042.84;4982404;28;20029;-72
2021/03/05 03:24:40;;;;;;;18.02;10.13;;;;;;;3.60;86.08;99046.22;4989161;28;20053;-72
2021/03/05 03:27:05;;;;;;;17.55;9.88;;;;;;;3.55;86.61;99034.31;4978000;28;20385;-72
2021/03/05 03:29:30;;;;;;;16.98;10.15;;;;;;;3.51;86.07;99036.41;4989646;28;20034;-72
2021/03/05 03:31:56;;;;;;;15.10;9.35;;;;;;;3.51;86.02;99045.31;4994320;28;20480;-72
2021/03/05 03:34:22;;;;;;;16.95;9.35;;;;;;;3.55;86.19;99055.72;4993714;28;20476;-72
2021/03/05 03:36:48;;;;;;;14.95;9.05;;;;;;;3.54;86.05;99070.91;4992174;28;20032;-72
2021/03/05 03:39:14;;;;;;;15.55;8.35;;;;;;;3.57;86.17;99070.59;4976100;28;20027;-72
2021/03/05 03:41:40;;;;;;;14.05;8.55;;;;;;;3.54;86.52;99062.03;4985646;28;20030;-72
2021/03/05 03:44:07;;;;;;;15.60;8.80;;;;;;;3.64;86.24;99086.88;4985054;28;20035;-72
2021/03/05 03:46:36;;;;;;;13.85;8.45;;;;;;;3.48;85.75;99071.50;4991240;28;20437;-72
2021/03/05 03:49:07;;;;;;;15.23;7.63;;;;;;;3.56;85.61;99076.09;4975901;28;20054;-72
2021/03/05 03:51:39;;;;;;;14.70;8.15;;;;;;;3.56;86.31;99078.78;4988441;28;20031;-72
2021/03/05 03:54:05;;;;;;;12.52;7.18;;;;;;;3.48;85.48;99076.84;4975949;28;20031;-72
2021/03/05 03:56:33;;;;;;;12.55;6.75;;;;;;;3.42;85.44;99075.63;4989059;28;20109;-72
2021/03/05 03:59:00;;;;;;;11.65;6.38;;;;;;;3.53;85.51;99082.59;4994648;28;20537;-72
2021/03/05 04:01:26;;;;;;;9.20;5.75;;;;;;;3.51;84.53;99076.53;4993586;28;20026;-72
2021/03/05 04:03:53;;;;;;;10.23;5.82;;;;;;;3.57;84.82;99086.66;5005988;28;20106;-72
2021/03/05 04:06:24;;;;;;;7.65;5.00;;;;;;;3.55;84.58;99096.66;5011275;28;20057;-72
2021/03/05 04:08:52;;;;;;;7.43;4.97;;;;;;;3.43;84.16;99082.69;5009308;28;20030;-71
2021/03/05 04:11:19;;;;;;;9.55;5.20;;;;;;;3.56;84.49;99101.00;5010911;28;20022;-72
2021/03/05 04:13:45;;;;;;;8.73;4.60;;;;;;;3.56;83.63;99103.69;5020983;28;20037;-72
2021/03/05 04:16:11;;;;;;;8.63;5.45;;;;;;;3.48;84.16;99100.94;5008919;28;20037;-72
2021/03/05 04:18:37;;;;;;;7.80;4.90;;;;;;;3.51;84.32;99097.94;5009537;28;20082;-72
2021/03/05 04:21:10;;;;;;;8.13;4.95;;;;;;;3.51;84.53;99106.84;5014018;28;20046;-72
2021/03/05 04:23:36;;;;;;;8.90;5.35;;;;;;;3.57;84.88;99110.75;4999904;28;20030;-72
2021/03/05 04:26:02;;;;;;;7.53;4.57;;;;;;;3.64;83.82;99114.50;5009954;28;20014;-71
2021/03/05 04:28:28;;;;;;;8.10;5.20;;;;;;;3.63;83.80;99120.81;5014233;28;20023;-72
2021/03/05 04:30:54;;;;;;;9.00;5.03;;;;;;;3.65;83.92;99116.16;5021092;28;20026;-72
2021/03/05 04:33:19;;;;;;;9.93;6.03;;;;;;;3.64;82.89;99117.19;5011781;28;20027;-72
2021/03/05 04:35:44;;;;;;;9.32;5.55;;;;;;;3.68;82.89;99126.56;5011099;28;20026;-72
2021/03/05 04:38:09;;;;;;;10.90;5.85;;;;;;;3.60;83.57;99128.31;5010982;28;20061;-72
2021/03/05 04:40:35;;;;;;;9.18;5.38;;;;;;;3.56;82.86;99132.28;5012605;28;20125;-72
2021/03/05 04:43:00;;;;;;;9.77;5.93;;;;;;;3.61;82.47;99130.81;5003692;28;20365;-71
2021/03/05 04:45:25;;;;;;;10.95;5.78;;;;;;;3.51;82.47;99122.88;4987941;28;20061;-72
2021/03/05 04:47:51;;;;;;;9.65;6.00;;;;;;;3.50;82.19;99136.41;4991294;28;20062;-72
2021/03/05 04:50:16;;;;;;;8.48;5.20;;;;;;;3.42;82.69;99130.97;4993418;28;20057;-73
2021/03/05 04:52:41;;;;;;;9.90;5.75;;;;;;;3.50;82.31;99134.56;4992298;28;20027;-73
2021/03/05 04:55:07;;;;;;;11.43;5.50;;;;;;;3.40;82.43;99128.41;4993572;28;20030;-73
2021/03/05 04:57:32;;;;;;;11.60;5.65;;;;;;;3.35;82.62;99137.88;4994595;28;20049;-74
2021/03/05 04:59:58;;;;;;;10.60;5.80;;;;;;;3.37;81.79;99149.28;5007334;28;20496;-72
2021/03/05 05:02:23;;;;;;;10.98;6.40;;;;;;;3.39;81.91;99137.44;4994721;28;20509;-73
2021/03/05 05:04:48;;;;;;;12.27;5.57;;;;;;;3.36;81.18;99139.59;4993604;28;20030;-75
2021/03/05 05:07:14;;;;;;;10.13;5.40;;;;;;;3.49;81.34;99150.78;4990106;28;20052;-75
2021/03/05 05:09:39;;;;;;;11.65;6.35;;;;;;;3.40;81.14;99138.28;4996503;28;20428;-72
2021/03/05 05:12:04;;;;;;;11.85;6.57;;;;;;;3.40;81.51;99143.63;4973326;28;20033;-73
2021/03/05 05:14:30;;;;;;;12.88;6.60;;;;;;;3.41;81.39;99158.72;5000721;28;20015;-74
2021/03/05 05:16:55;;;;;;;12.23;6.90;;;;;;;3.38;81.27;99150.97;4992643;28;20105;-72
2021/03/05 05:19:20;;;;;;;13.05;6.47;;;;;;;3.27;81.62;99154.69;4993782;28;20030;-72
2021/03/05 05:21:46;;;;;;;12.02;6.03;;;;;;;3.29;82.17;99155.38;4993885;28;20030;-73
2021/03/05 05:24:11;;;;;;;10.07;6.00;;;;;;;3.34;81.84;99165.63;4993698;28;20463;-70
2021/03/05 05:26:36;;;;;;;12.02;6.55;;;;;;;3.38;81.45;99167.00;4992298;28;20023;-73
2021/03/05 05:29:02;;;;;;;13.75;6.88;;;;;;;3.32;82.03;99172.97;4991800;28;20034;-73
2021/03/05 05:31:27;;;;;;;11.18;6.35;;;;;;;3.28;81.14;99157.22;4991754;28;20061;-73
2021/03/05 05:33:52;;;;;;;13.23;7.57;;;;;;;3.29;80.93;99156.22;4993850;28;20507;-70
2021/03/05 05:36:17;;;;;;;12.80;6.70;;;;;;;3.32;81.39;99163.09;4991391;28;20060;-73
2021/03/05 05:38:43;;;;;;;12.55;7.13;;;;;;;3.26;81.05;99169.88;4989743;28;20085;-72
2021/03/05 05:41:08;;;;;;;13.52;6.75;;;;;;;3.25;81.28;99162.88;4992452;28;20506;-74
2021/03/05 05:43:33;;;;;;;13.70;7.28;;;;;;;3.22;81.55;99156.94;4993660;28;20088;-73
2021/03/05 05:46:07;;;;;;;11.55;6.40;;;;;;;3.16;81.28;99152.19;4994016;28;20025;-74
2021/03/05 05:48:38;;;;;;;11.45;5.80;;;;;;;3.24;81.56;99176.38;4983647;28;20076;-75
2021/03/05 05:51:13;;;;;;;13.43;7.07;;;;;;;3.19;81.13;99175.97;4994105;28;20186;-71
2021/03/05 05:53:43;;;;;;;11.63;6.85;;;;;;;3.22;81.54;99181.88;4992772;28;20073;-71
2021/03/05 05:56:08;;;;;;;;;;;;;;;3.20;81.43;99175.84;4995588;28;20077;-72
2021/03/05 05:58:33;;;;;;;13.25;6.28;;;;;;;3.16;82.20;99178.94;4990379;28;19910;-72
2021/03/05 06:00:59;;;;;;;13.80;6.82;;;;;;;3.14;81.63;99175.56;4991593;28;20407;-73
2021/03/05 06:03:28;;;;;;;14.18;6.88;;;;;;;3.20;81.88;99191.88;4993232;28;20102;-70
2021/03/05 06:05:55;;;;;;;14.32;6.63;;;;;;;3.20;81.91;99186.53;4989374;28;20026;-73
2021/03/05 06:08:21;;;;;;;14.45;6.85;;;;;;;3.12;81.84;99191.75;4990084;28;20396;-70
2021/03/05 06:10:46;;;;;;;13.40;7.15;;;;;;;3.17;81.61;99197.53;4989842;28;20030;-70
2021/03/05 06:13:12;;;;;;;15.75;6.28;;;;;;;3.13;81.67;99205.97;4992851;28;20034;-72
2021/03/05 06:15:38;;;;;;;14.25;7.35;;;;;;;3.16;81.94;99209.19;4992803;28;20050;-71
2021/03/05 06:18:03;;;;;;;15.98;6.88;;;;;;;3.18;81.91;99204.53;4992271;28;20476;-74
2021/03/05 06:20:44;;;;;;;14.27;6.68;;;;;;;3.16;81.88;99209.19;4988744;28;20053;-71
2021/03/05 06:23:12;;;;;;;14.35;7.30;;;;;;;3.16;82.13;99217.19;4990101;28;20691;-71
2021/03/05 06:25:37;;;;;;;13.45;6.78;;;;;;;3.13;82.26;99214.81;4991426;28;20506;-71
2021/03/05 06:28:16;;;;;;;13.10;6.45;;;;;;;3.15;82.49;99225.38;4975561;28;20140;-71
2021/03/05 06:30:42;;;;;;;12.70;6.88;;;;;;;3.14;82.47;99224.53;4992830;28;20038;-72
2021/03/05 06:33:30;;;;;;;14.23;6.75;;;;;;;3.14;82.75;99229.88;4973589;28;20505;-72
2021/03/05 06:36:15;;;;;;;14.20;6.95;;;;;;;3.14;82.79;99235.22;4978820;28;20035;-72
2021/03/05 06:38:42;;;;;;;14.00;6.57;;;;;;;3.30;82.68;99239.94;4989807;28;20030;-71
2021/03/05 06:41:27;;;;;;;13.18;6.82;;;;;;;3.36;81.81;99242.06;4989965;28;20027;-72
2021/03/05 06:44:03;;;;;;;12.85;6.78;;;;;;;3.21;81.96;99239.00;4993411;28;20109;-71
2021/03/05 06:46:39;;;;;;;17.15;7.50;;;;;;;3.29;82.55;99248.97;4985560;28;20035;-72
2021/03/05 06:49:13;;;;;;;14.48;7.07;;;;;;;3.31;82.23;99252.34;4974182;28;20038;-71
2021/03/05 06:51:39;;;;;;;14.95;7.22;;;;;;;3.28;82.45;99253.47;4987920;28;20710;-72
2021/03/05 06:54:29;;;;;;;13.93;7.00;;;;;;;3.33;82.35;99266.41;4991819;28;20440;-72
2021/03/05 06:56:54;;;;;;;12.38;6.93;;;;;;;3.35;82.63;99264.41;4993310;28;20041;-71
2021/03/05 06:59:22;;;;;;;14.63;7.63;;;;;;;3.36;82.54;99265.28;4991049;28;20117;-71
2021/03/05 07:01:54;;;;;;;14.18;7.25;;;;;;;3.40;82.74;99267.50;4987965;28;20443;-71
2021/03/05 07:04:24;;;;;;;14.52;7.45;;;;;;;3.47;82.12;99267.78;4975082;28;20092;-71
2021/03/05 07:07:01;;;;;;;13.18;6.85;;;;;;;3.55;82.16;99270.56;4981450;28;20042;-72
2021/03/05 07:09:30;;;;;;;12.85;6.45;;;;;;;3.56;82.83;99274.06;4977883;28;20065;-72
2021/03/05 07:11:57;;;;;;;14.75;7.72;;;;;;;3.60;82.31;99275.47;4992953;28;20034;-72
2021/03/05 07:14:32;;;;;;;13.18;7.13;;;;;;;3.61;82.43;99275.31;4994094;28;20435;-71
2021/03/05 07:17:00;;;;;;;13.20;6.75;;;;;;;3.79;81.98;99282.56;4995565;28;20065;-71
2021/03/05 07:19:27;;;;;;;15.18;6.93;;;;;;;3.79;81.73;99288.75;4985609;28;20118;-71
2021/03/05 07:21:53;;;;;;;16.17;8.38;;;;;;;3.69;81.55;99283.47;4980014;28;20030;-71
2021/03/05 07:24:22;;;;;;;17.30;8.55;;;;;;;3.73;80.94;99279.47;4992272;28;20062;-71
2021/03/05 07:26:56;;;;;;;18.02;8.07;;;;;;;3.88;80.56;99297.75;4993671;28;20038;-72
2021/03/05 07:29:37;;;;;;;15.00;8.23;;;;;;;3.82;80.37;99298.31;4995718;28;20027;-72
2021/03/05 07:32:05;;;;;;;15.57;7.93;;;;;;;3.76;80.72;99310.47;5014563;28;20052;-72
2021/03/05 07:34:35;;;;;;;18.45;7.57;;;;;;;3.86;80.43;99310.44;4979461;28;20050;-72
2021/03/05 07:37:03;;;;;;;15.00;7.55;;;;;;;3.93;80.49;99312.38;4975921;28;20480;-71
2021/03/05 07:39:49;;;;;;;14.73;8.00;;;;;;;3.76;80.51;99304.28;4989610;28;20113;-72
2021/03/05 07:42:16;;;;;;;18.58;8.07;;;;;;;3.79;80.96;99314.69;4995024;28;20396;-72
2021/03/05 07:44:42;;;;;;;15.32;7.47;;;;;;;3.80;80.66;99319.03;4987287;28;20038;-71
2021/03/05 07:47:13;;;;;;;15.48;8.25;;;;;;;3.81;81.10;99323.41;4995076;28;20089;-72
2021/03/05 07:49:39;;;;;;;15.25;8.27;;;;;;;3.76;80.42;99310.47;4991830;28;20069;-71
2021/03/05 07:52:06;;;;;;;17.95;8.65;;;;;;;3.88;80.76;99324.50;4993578;28;20149;-71
2021/03/05 07:54:43;;;;;;;20.13;8.68;;;;;;;3.82;79.99;99322.41;4995330;28;20030;-71
2021/03/05 07:57:14;;;;;;;14.88;7.30;;;;;;;3.98;80.19;99325.28;4995124;28;20026;-71
2021/03/05 07:59:39;;;;;;;16.55;7.80;;;;;;;4.04;79.51;99330.06;4987563;28;20030;-71
2021/03/05 08:02:07;;;;;;;18.23;8.20;;;;;;;4.10;78.82;99324.09;4996448;28;20033;-71
2021/03/05 08:04:59;;;;;;;16.73;8.18;;;;;;;4.09;80.21;99329.63;4981123;28;20481;-71
2021/03/05 08:07:30;;;;;;;18.70;7.70;;;;;;;4.08;79.78;99334.13;4976621;28;20043;-72
2021/03/05 08:09:58;;;;;;;13.52;7.00;;;;;;;4.12;79.37;99329.31;4976628;28;20062;-72
2021/03/05 08:15:08;;;;;;;17.02;8.07;;;;;;;4.22;78.80;99342.63;4989561;28;20392;-72
2021/03/05 08:17:38;;;;;;;14.45;7.78;;;;;;;4.25;78.87;99342.38;4998443;28;20041;-75
2021/03/05 08:20:05;;;;;;;15.25;7.75;;;;;;;4.27;78.13;99351.06;4982616;28;20042;-76
2021/03/05 08:22:32;;;;;;;14.98;8.23;;;;;;;4.27;78.67;99335.00;4984505;28;20030;-73
2021/03/05 08:25:38;;;;;;;15.95;7.78;;;;;;;4.43;77.81;99350.41;4991489;28;20480;-74
2021/03/05 08:28:05;;;;;;;15.27;8.20;;;;;;;4.36;77.62;99356.38;4955105;28;20074;-70
2021/03/05 08:30:33;;;;;;;16.02;7.82;;;;;;;4.50;77.17;99365.72;4958516;28;20035;-72
2021/03/05 08:33:00;;;;;;;14.02;7.15;;;;;;;4.63;77.21;99356.50;4955499;28;20110;-75
2021/03/05 08:35:28;;;;;;;15.23;7.63;;;;;;;4.69;76.51;99355.88;4954850;28;20054;-73
2021/03/05 08:37:53;;;;;;;17.58;7.97;;;;;;;4.82;77.11;99361.69;4955507;29;20545;-74
2021/03/05 08:40:18;;;;;;;16.17;7.78;;;;;;;4.79;77.92;99367.38;4963455;28;20123;-73
2021/03/05 08:42:45;;;;;;;17.63;8.68;;;;;;;4.77;77.44;99362.19;4943062;29;20033;-73
2021/03/05 08:45:22;;;;;;;13.85;7.43;;;;;;;4.90;76.01;99372.53;4970035;28;20054;-73
2021/03/05 08:47:54;;;;;;;14.13;7.60;;;;;;;4.87;76.17;99372.81;4950930;29;20673;-74
2021/03/05 08:50:22;;;;;;;15.70;7.43;;;;;;;4.87;76.32;99372.81;4969461;28;20058;-73
2021/03/05 08:52:49;;;;;;;14.40;7.93;;;;;;;4.82;76.74;99375.09;4952279;29;20059;-73
2021/03/05 08:55:15;;;;;;;18.48;7.82;;;;;;;4.65;76.54;99368.75;4955218;28;20034;-72
2021/03/05 08:57:43;;;;;;;14.60;7.85;;;;;;;4.68;76.63;99378.31;4955496;28;20034;-72
2021/03/05 09:00:17;;;;;;;15.75;7.85;;;;;;;4.96;76.42;99388.00;4951920;28;20055;-72
2021/03/05 09:02:45;;;;;;;14.30;7.07;;;;;;;5.00;75.74;99383.16;4967705;28;20038;-72
2021/03/05 09:05:13;;;;;;;14.25;7.40;;;;;;;4.87;75.83;99385.38;4949299;28;20027;-73
2021/03/05 09:07:55;;;;;;;14.18;7.15;;;;;;;4.83;76.43;99380.31;4954280;28;20039;-71
2021/03/05 09:10:37;;;;;;;13.18;7.40;;;;;;;4.90;76.34;99390.44;4946879;29;20031;-73
2021/03/05 09:13:02;;;;;;;16.10;7.53;;;;;;;4.95;76.60;99394.38;4953131;28;20035;-73
2021/03/05 09:15:38;;;;;;;13.57;7.55;;;;;;;4.89;75.51;99403.00;4966307;28;20118;-74
2021/03/05 09:18:04;;;;;;;16.77;7.40;;;;;;;4.85;76.35;99404.31;4945091;28;20023;-74
2021/03/05 09:20:40;;;;;;;15.57;7.72;;;;;;;4.83;75.79;99407.13;4944147;28;20075;-73
2021/03/05 09:23:15;;;;;;;17.27;7.63;;;;;;;4.75;76.75;99401.69;4944832;28;20481;-73
2021/03/05 09:25:52;;;;;;;15.85;7.20;;;;;;;4.76;76.04;99410.56;4954470;28;20082;-73
2021/03/05 09:28:18;;;;;;;14.27;6.75;;;;;;;4.76;76.54;99405.22;4951320;29;20066;-74
2021/03/05 09:30:55;;;;;;;12.70;7.53;;;;;;;4.81;75.76;99398.41;4946301;28;20041;-75
2021/03/05 09:33:31;;;;;;;15.13;7.60;;;;;;;4.87;76.15;99402.31;4964518;28;20025;-74
2021/03/05 09:35:58;;;;;;;16.83;8.07;;;;;;;4.94;76.21;99419.47;4951193;28;20029;-72
2021/03/05 09:38:23;;;;;;;14.50;7.30;;;;;;;4.98;76.49;99417.34;4954665;28;20023;-72
2021/03/05 09:40:49;;;;;;;14.23;7.20;;;;;;;4.84;76.14;99413.34;4942935;28;20033;-76
2021/03/05 09:43:16;;;;;;;15.18;8.00;;;;;;;4.78;76.16;99413.94;4942224;29;20027;-76
2021/03/05 09:45:47;;;;;;;13.00;7.38;;;;;;;4.61;76.94;99424.50;4951269;28;20519;-73
2021/03/05 09:48:33;;;;;;;14.68;7.63;;;;;;;4.73;76.77;99430.47;4957135;28;20027;-71
2021/03/05 09:51:04;;;;;;;17.45;8.02;;;;;;;4.78;76.40;99435.41;4960180;28;20066;-71
2021/03/05 09:53:32;;;;;;;13.85;7.57;;;;;;;5.01;76.65;99428.59;4941476;29;20031;-69
2021/03/05 09:56:08;;;;;;;17.80;7.90;;;;;;;5.22;75.80;99427.47;4949325;28;20453;-72
2021/03/05 09:58:35;;;;;;;15.75;8.25;;;;;;;5.31;74.00;99431.88;4944984;28;20042;-74
2021/03/05 10:01:01;;;;;;;16.08;7.70;;;;;;;5.56;74.82;99426.75;4957327;28;20662;-74
2021/03/05 10:03:27;;;;;;;16.52;8.20;;;;;;;5.56;73.92;99419.53;4955106;28;20098;-76
2021/03/05 10:05:53;;;;;;;17.33;8.73;;;;;;;5.80;73.46;99436.81;4952934;28;20461;-74
2021/03/05 10:08:29;;;;;;;14.85;7.80;;;;;;;6.02;72.21;99432.78;4942146;29;20030;-74
2021/03/05 10:11:08;;;;;;;15.45;7.10;;;;;;;6.00;70.98;99432.97;4950160;28;20081;-74
2021/03/05 10:13:50;;;;;;;13.63;7.90;;;;;;;6.11;71.34;99429.16;4951805;29;20089;-74
2021/03/05 10:16:31;;;;;;;11.88;8.02;;;;;;;6.22;72.18;99436.09;4950558;28;20413;-72
2021/03/05 10:19:01;;;;;;;13.98;8.00;;;;;;;6.29;70.67;99438.00;4946864;28;20016;-72
2021/03/05 10:21:26;;;;;;;16.05;8.15;;;;;;;6.20;70.96;99438.94;4943545;28;20031;-72
2021/03/05 10:23:52;;;;;;;15.48;8.57;;;;;;;6.23;70.87;99444.00;4948635;28;20131;-75
2021/03/05 10:26:27;;;;;;;12.85;7.32;;;;;;;6.23;70.71;99425.19;4948735;28;20470;-73
2021/03/05 10:29:07;;;;;;;15.73;8.52;;;;;;;6.21;70.54;99424.53;4949550;29;21345;-73
2021/03/05 10:31:49;;;;;;;;;;;;;;;6.50;70.37;99442.13;4965005;28;20065;-73
2021/03/05 10:34:31;;;;;;;14.00;7.82;;;;;;;6.51;69.65;99441.94;4966235;28;19914;-74
2021/03/05 10:37:03;;;;;;;14.55;7.82;;;;;;;6.45;69.31;99447.16;4951379;29;20451;-73
2021/03/05 10:39:32;;;;;;;14.65;7.95;;;;;;;6.32;70.45;99448.41;4948717;28;20023;-71
2021/03/05 10:42:03;;;;;;;12.85;7.30;;;;;;;6.42;70.63;99450.13;4948300;28;20030;-72
2021/03/05 10:44:30;;;;;;;14.60;7.90;;;;;;;6.24;69.97;99448.38;4953133;28;20030;-72
2021/03/05 10:47:00;;;;;;;15.55;7.25;;;;;;;6.48;68.66;99453.03;4945253;28;20031;-72
2021/03/05 10:49:27;;;;;;;12.45;7.60;;;;;;;6.59;68.49;99449.19;4949576;28;20478;-72
2021/03/05 10:51:53;;;;;;;14.93;7.78;;;;;;;6.78;68.82;99459.69;4947101;28;20035;-72
2021/03/05 10:54:19;;;;;;;14.43;8.38;;;;;;;6.95;68.43;99462.44;4954135;28;20024;-72
2021/03/05 10:56:44;;;;;;;13.77;7.53;;;;;;;6.92;66.62;99460.09;4962579;28;20032;-72
2021/03/05 10:59:11;;;;;;;16.13;7.88;;;;;;;7.06;66.42;99477.44;4947912;28;20024;-72
2021/03/05 11:01:37;;;;;;;14.93;8.07;;;;;;;7.04;66.57;99469.53;4953620;28;20541;-72
2021/03/05 11:04:02;;;;;;;16.08;8.43;;;;;;;6.72;67.34;99471.09;4947293;29;20382;-72
2021/03/05 11:06:28;;;;;;;13.95;7.80;;;;;;;6.77;66.91;99471.47;4966099;28;20035;-72
2021/03/05 11:08:53;;;;;;;13.07;7.55;;;;;;;6.87;67.23;99473.19;4953990;28;20027;-72
2021/03/05 11:11:19;;;;;;;18.05;8.15;;;;;;;7.16;66.37;99478.13;4953064;28;20035;-72
2021/03/05 11:13:44;;;;;;;14.52;8.10;;;;;;;7.11;65.32;99477.78;4951642;29;20031;-72
2021/03/05 11:16:09;;;;;;;13.15;7.88;;;;;;;7.15;66.11;99477.31;4957660;28;20034;-71
2021/03/05 11:18:35;;;;;;;14.18;8.15;;;;;;;7.02;65.58;99479.59;4952614;28;20031;-72
2021/03/05 11:21:00;;;;;;;17.63;8.05;;;;;;;7.19;66.24;99489.41;4952859;28;20031;-72
2021/03/05 11:23:25;;;;;;;15.80;8.30;;;;;;;7.15;66.17;99477.31;4947767;28;20039;-72
2021/03/05 11:25:52;;;;;;;14.00;7.57;;;;;;;7.03;66.39;99490.19;4965729;28;20374;-72
2021/03/05 11:28:17;;;;;;;11.40;7.30;;;;;;;7.23;66.03;99492.59;4950018;28;20126;-72
2021/03/05 11:30:44;;;;;;;16.85;8.48;;;;;;;6.93;67.54;99488.66;4943802;28;20031;-71
2021/03/05 11:33:10;;;;;;;13.65;7.47;;;;;;;7.00;67.71;99485.16;4943796;28;20039;-72
2021/03/05 11:35:35;;;;;;;16.65;9.02;;;;;;;7.16;66.47;99489.75;4948063;28;20422;-72
2021/03/05 11:38:00;;;;;;;14.93;8.18;;;;;;;7.03;65.97;99490.19;4946359;29;20019;-72
2021/03/05 11:40:26;;;;;;;12.43;7.70;;;;;;;7.07;66.28;99487.19;4938809;28;20110;-72
2021/03/05 11:42:51;;;;;;;11.85;7.32;;;;;;;6.90;65.86;99487.13;4958267;28;20413;-72